createdAt,value
2023-05-12T00:01:24.911Z,5.20
2023-05-12T00:03:54.394Z,4.80
2023-05-12T00:06:21.564Z,4.80
2023-05-12T00:08:48.596Z,5.38
2023-05-12T00:11:15.676Z,5.30
2023-05-12T00:13:42.708Z,5.10
2023-05-12T00:16:10.029Z,5.30
2023-05-12T00:18:37.040Z,5.43
2023-05-12T00:21:04.035Z,5.05
2023-05-12T00:23:33.361Z,6.00
2023-05-12T00:26:00.310Z,5.45
2023-05-12T00:28:29.657Z,5.72
2023-05-12T00:31:02.887Z,6.35
2023-05-12T00:33:31.264Z,5.88
2023-05-12T00:36:01.265Z,6.07
2023-05-12T00:38:28.134Z,6.05
2023-05-12T00:40:55.069Z,5.85
2023-05-12T00:43:21.946Z,6.43
2023-05-12T00:45:48.998Z,6.53
2023-05-12T00:48:15.728Z,6.43
2023-05-12T00:50:45.070Z,6.38
2023-05-12T00:53:13.334Z,6.45
2023-05-12T00:55:40.082Z,6.43
2023-05-12T00:58:07.351Z,6.80
2023-05-12T01:00:34.131Z,6.25
2023-05-12T01:03:01.009Z,6.30
2023-05-12T01:05:32.071Z,6.00
2023-05-12T01:08:01.272Z,5.88
2023-05-12T01:10:28.287Z,6.00
2023-05-12T01:12:57.144Z,6.00
2023-05-12T01:15:24.009Z,5.57
2023-05-12T01:17:57.635Z,5.78
2023-05-12T01:20:27.099Z,5.88
2023-05-12T01:22:55.273Z,5.15
2023-05-12T01:25:27.064Z,5.13
2023-05-12T01:27:54.509Z,5.72
2023-05-12T01:30:21.983Z,5.50
2023-05-12T01:32:52.259Z,5.18
2023-05-12T01:35:19.151Z,6.07
2023-05-12T01:37:48.317Z,5.10
2023-05-12T01:40:15.379Z,4.95
2023-05-12T01:42:43.055Z,5.53
2023-05-12T01:45:10.588Z,4.80
2023-05-12T01:47:37.491Z,4.80
2023-05-12T01:50:04.552Z,5.47
2023-05-12T01:52:33.523Z,4.65
2023-05-12T01:55:02.428Z,5.32
2023-05-12T01:57:29.297Z,4.53
2023-05-12T01:59:56.274Z,4.68
2023-05-12T02:02:23.013Z,5.03
2023-05-12T02:04:52.208Z,5.40
2023-05-12T02:07:18.938Z,4.35
2023-05-12T02:09:45.934Z,4.40
2023-05-12T02:12:15.569Z,4.28
2023-05-12T02:14:42.401Z,4.05
2023-05-12T02:17:09.455Z,4.25
2023-05-12T02:19:36.188Z,4.80
2023-05-12T02:22:03.017Z,3.90
2023-05-12T02:24:29.853Z,3.80
2023-05-12T02:26:56.740Z,4.18
2023-05-12T02:29:23.439Z,3.97
2023-05-12T02:31:52.605Z,3.70
2023-05-12T02:34:19.449Z,3.58
2023-05-12T02:36:46.303Z,3.40
2023-05-12T02:39:13.589Z,3.15
2023-05-12T02:41:40.336Z,3.35
2023-05-12T02:44:07.110Z,3.40
2023-05-12T02:46:33.851Z,3.90
2023-05-12T02:49:00.735Z,3.88
2023-05-12T02:51:32.336Z,3.83
2023-05-12T02:53:59.080Z,3.47
2023-05-12T02:56:26.343Z,3.10
2023-05-12T02:58:55.536Z,2.97
2023-05-12T03:01:24.549Z,3.10
2023-05-12T03:03:51.415Z,2.92
2023-05-12T03:06:18.300Z,3.28
2023-05-12T03:08:45.048Z,2.58
2023-05-12T03:11:12.091Z,2.95
2023-05-12T03:13:38.805Z,2.90
2023-05-12T03:16:05.940Z,3.00
2023-05-12T03:18:32.658Z,3.10
2023-05-12T03:20:59.512Z,2.90
2023-05-12T03:23:26.811Z,3.13
2023-05-12T03:25:55.862Z,3.42
2023-05-12T03:28:24.915Z,3.63
2023-05-12T03:30:51.697Z,3.80
2023-05-12T03:33:20.899Z,3.88
2023-05-12T03:35:47.899Z,3.67
2023-05-12T03:38:14.588Z,4.03
2023-05-12T03:40:41.378Z,3.42
2023-05-12T03:43:08.132Z,4.45
2023-05-12T03:45:35.021Z,4.65
2023-05-12T03:48:01.743Z,4.57
2023-05-12T03:50:28.381Z,3.38
2023-05-12T03:52:56.229Z,5.60
2023-05-12T03:55:23.010Z,3.83
2023-05-12T03:57:50.235Z,4.63
2023-05-12T04:00:17.737Z,4.32
2023-05-12T04:02:47.562Z,5.88
2023-05-12T04:05:14.771Z,5.15
2023-05-12T04:07:41.477Z,6.47
2023-05-12T04:10:08.883Z,6.55
2023-05-12T04:12:35.511Z,6.80
2023-05-12T04:15:02.902Z,6.85
2023-05-12T04:17:32.097Z,7.95
2023-05-12T04:19:58.897Z,6.82
2023-05-12T04:22:27.765Z,7.30
2023-05-12T04:24:54.391Z,8.45
2023-05-12T04:27:21.271Z,9.15
2023-05-12T04:29:48.152Z,8.95
2023-05-12T04:32:14.970Z,8.32
2023-05-12T04:34:42.068Z,9.95
2023-05-12T04:37:09.090Z,8.95
2023-05-12T04:39:35.866Z,10.98
2023-05-12T04:42:02.791Z,11.23
2023-05-12T04:44:32.703Z,9.38
2023-05-12T04:47:02.434Z,8.68
2023-05-12T04:49:31.949Z,7.95
2023-05-12T04:51:58.676Z,7.10
2023-05-12T04:54:27.911Z,7.43
2023-05-12T04:56:56.871Z,10.40
2023-05-12T04:59:24.065Z,13.15
2023-05-12T05:01:51.382Z,12.23
2023-05-12T05:04:21.021Z,11.23
2023-05-12T05:06:48.125Z,11.43
2023-05-12T05:09:14.947Z,11.27
2023-05-12T05:11:42.071Z,11.25
2023-05-12T05:14:08.752Z,14.15
2023-05-12T05:16:35.749Z,13.60
2023-05-12T05:19:06.466Z,8.48
2023-05-12T05:21:36.109Z,15.23
2023-05-12T05:24:02.851Z,13.20
2023-05-12T05:26:31.619Z,13.68
2023-05-12T05:28:58.517Z,14.23
2023-05-12T05:31:26.013Z,13.60
2023-05-12T05:33:52.844Z,16.17
2023-05-12T05:36:28.883Z,10.40
2023-05-12T05:38:57.263Z,15.02
2023-05-12T05:41:26.208Z,15.45
2023-05-12T05:43:52.865Z,15.65
2023-05-12T05:46:19.668Z,18.02
2023-05-12T05:48:46.660Z,17.05
2023-05-12T05:51:13.303Z,17.92
2023-05-12T05:53:40.073Z,18.55
2023-05-12T05:56:07.010Z,16.25
2023-05-12T05:58:34.107Z,15.95
2023-05-12T06:01:03.659Z,17.98
2023-05-12T06:03:30.569Z,16.60
2023-05-12T06:05:59.692Z,17.15
2023-05-12T06:08:26.410Z,18.08
2023-05-12T06:10:53.182Z,17.73
2023-05-12T06:13:21.157Z,16.92
2023-05-12T06:15:47.908Z,21.63
2023-05-12T06:18:14.534Z,20.38
2023-05-12T06:20:41.275Z,19.42
2023-05-12T06:23:08.311Z,20.10
2023-05-12T06:25:35.396Z,20.55
2023-05-12T06:28:02.219Z,17.65
2023-05-12T06:30:31.573Z,19.95
2023-05-12T06:32:58.397Z,19.52
2023-05-12T06:35:27.770Z,17.00
2023-05-12T06:37:54.716Z,17.00
2023-05-12T06:40:27.107Z,16.48
2023-05-12T06:42:54.180Z,16.00
2023-05-12T06:45:21.472Z,17.45
2023-05-12T06:47:48.863Z,15.93
2023-05-12T06:50:17.669Z,14.43
2023-05-12T06:52:44.929Z,15.00
2023-05-12T06:55:11.631Z,16.23
2023-05-12T06:57:38.518Z,15.77
2023-05-12T07:00:05.976Z,14.73
2023-05-12T07:02:33.035Z,14.63
2023-05-12T07:04:59.696Z,16.35
2023-05-12T07:07:28.843Z,15.60
2023-05-12T07:09:58.257Z,14.05
2023-05-12T07:12:25.447Z,14.73
2023-05-12T07:14:55.096Z,13.95
2023-05-12T07:20:05.161Z,14.52
2023-05-12T07:22:32.695Z,13.05
2023-05-12T07:25:00.244Z,13.05
2023-05-12T07:27:29.066Z,12.82
2023-05-12T07:29:55.781Z,11.73
2023-05-12T07:32:23.561Z,11.50
2023-05-12T07:34:53.469Z,11.15
2023-05-12T07:37:20.177Z,10.35
2023-05-12T07:39:47.190Z,10.27
2023-05-12T07:42:16.012Z,9.07
2023-05-12T07:44:42.829Z,8.70
2023-05-12T07:47:11.626Z,7.65
2023-05-12T07:49:38.287Z,7.25
2023-05-12T07:52:05.607Z,6.93
2023-05-12T07:54:32.321Z,6.28
2023-05-12T07:56:59.177Z,6.28
2023-05-12T07:59:26.070Z,5.93
2023-05-12T08:01:54.196Z,5.55
2023-05-12T08:04:20.925Z,6.25
2023-05-12T08:06:50.555Z,5.43
2023-05-12T08:09:20.464Z,5.22
2023-05-12T08:11:51.566Z,4.40
2023-05-12T08:14:18.761Z,4.80
2023-05-12T08:16:46.553Z,3.88
2023-05-12T08:19:14.019Z,4.40
2023-05-12T08:21:40.736Z,4.10
2023-05-12T08:24:09.588Z,3.75
2023-05-12T08:26:36.146Z,4.20
2023-05-12T08:29:02.766Z,3.85
2023-05-12T08:31:29.599Z,3.80
2023-05-12T08:34:09.024Z,4.30
2023-05-12T08:36:39.119Z,3.83
2023-05-12T08:39:08.764Z,3.72
2023-05-12T08:41:52.122Z,3.92
2023-05-12T08:44:19.982Z,3.78
2023-05-12T08:46:48.060Z,3.50
2023-05-12T08:49:18.040Z,3.92
2023-05-12T08:51:54.487Z,3.40
2023-05-12T08:54:26.774Z,2.67
2023-05-12T08:59:26.812Z,3.50
2023-05-12T09:01:57.674Z,3.00
2023-05-12T09:04:24.499Z,3.00
2023-05-12T09:06:53.631Z,2.70
2023-05-12T09:09:21.975Z,2.60
2023-05-12T09:11:53.532Z,2.42
2023-05-12T09:14:25.702Z,2.47
2023-05-12T09:17:00.028Z,2.85
2023-05-12T09:19:26.898Z,2.83
2023-05-12T09:21:53.690Z,2.20
2023-05-12T09:24:21.097Z,2.42
2023-05-12T09:26:56.211Z,2.13
2023-05-12T09:29:31.197Z,2.20
2023-05-12T09:32:01.855Z,2.28
2023-05-12T09:34:30.714Z,2.80
2023-05-12T09:36:58.923Z,2.00
2023-05-12T09:39:29.091Z,2.38
2023-05-12T09:41:55.827Z,2.40
2023-05-12T09:44:24.090Z,2.50
2023-05-12T09:46:51.528Z,2.65
2023-05-12T09:49:27.462Z,2.90
2023-05-12T09:51:58.726Z,3.20
2023-05-12T09:54:30.313Z,2.97
2023-05-12T09:57:03.966Z,2.88
2023-05-12T09:59:32.889Z,2.90
2023-05-12T10:02:05.528Z,2.40
2023-05-12T10:04:45.527Z,2.22
2023-05-12T10:07:14.454Z,2.17
2023-05-12T10:09:42.925Z,2.30
2023-05-12T10:12:13.557Z,2.20
2023-05-12T10:14:41.276Z,2.42
2023-05-12T10:17:09.779Z,2.10
2023-05-12T10:19:41.125Z,2.03
2023-05-12T10:22:13.167Z,1.95
2023-05-12T10:24:41.746Z,2.38
2023-05-12T10:27:08.428Z,1.90
2023-05-12T10:29:37.156Z,2.25
2023-05-12T10:32:04.167Z,2.20
2023-05-12T10:34:33.744Z,1.92
2023-05-12T10:37:00.630Z,2.30
2023-05-12T10:39:32.934Z,1.98
2023-05-12T10:42:06.657Z,2.00
2023-05-12T10:44:33.391Z,2.00
2023-05-12T10:47:00.166Z,2.08
2023-05-12T10:49:40.424Z,2.20
2023-05-12T10:52:08.084Z,1.92
2023-05-12T10:54:41.430Z,2.22
2023-05-12T10:57:15.890Z,1.63
2023-05-12T10:59:49.871Z,2.10
2023-05-12T11:02:19.728Z,2.00
2023-05-12T11:04:53.647Z,1.95
2023-05-12T11:07:31.327Z,2.00
2023-05-12T11:10:04.743Z,2.42
2023-05-12T11:12:37.359Z,2.03
2023-05-12T11:15:05.854Z,2.30
2023-05-12T11:17:38.959Z,2.00
2023-05-12T11:20:12.046Z,2.20
2023-05-12T11:22:41.483Z,2.35
2023-05-12T11:25:12.438Z,2.15
2023-05-12T11:27:42.436Z,1.98
2023-05-12T11:30:11.024Z,2.10
2023-05-12T11:32:43.338Z,2.28
2023-05-12T11:35:11.493Z,2.10
2023-05-12T11:37:41.889Z,2.03
2023-05-12T11:40:15.916Z,2.30
2023-05-12T11:42:46.323Z,2.72
2023-05-12T11:45:23.115Z,2.60
2023-05-12T11:47:50.143Z,1.98
2023-05-12T11:50:26.307Z,2.20
2023-05-12T11:52:55.821Z,2.20
2023-05-12T11:55:26.789Z,2.50
2023-05-12T11:58:01.355Z,2.90
2023-05-12T12:00:30.171Z,2.30
2023-05-12T12:03:13.004Z,2.35
2023-05-12T12:05:41.977Z,2.30
2023-05-12T12:08:17.464Z,2.40
2023-05-12T12:10:47.289Z,2.55
2023-05-12T12:13:25.795Z,2.25
2023-05-12T12:15:52.962Z,2.25
2023-05-12T12:18:19.828Z,2.78
2023-05-12T12:20:52.299Z,2.63
2023-05-12T12:23:18.908Z,2.60
2023-05-12T12:25:45.519Z,2.00
2023-05-12T12:28:13.123Z,2.20
2023-05-12T12:30:39.764Z,2.22
2023-05-12T12:33:08.655Z,2.13
2023-05-12T12:35:37.559Z,2.13
2023-05-12T12:38:04.687Z,2.40
2023-05-12T12:40:31.291Z,1.95
2023-05-12T12:42:57.849Z,2.15
2023-05-12T12:45:24.910Z,2.30
2023-05-12T12:47:54.770Z,1.98
2023-05-12T12:50:25.135Z,2.13
2023-05-12T12:52:53.843Z,2.58
2023-05-12T12:55:23.257Z,2.45
2023-05-12T12:57:50.031Z,1.98
2023-05-12T13:00:19.508Z,2.50
2023-05-12T13:02:49.692Z,2.03
2023-05-12T13:05:16.692Z,2.00
2023-05-12T13:07:45.658Z,2.28
2023-05-12T13:10:14.618Z,2.22
2023-05-12T13:12:41.381Z,2.30
2023-05-12T13:15:08.605Z,2.60
2023-05-12T13:17:35.308Z,2.17
2023-05-12T13:20:04.811Z,2.20
2023-05-12T13:22:31.782Z,2.28
2023-05-12T13:24:58.424Z,2.30
2023-05-12T13:27:25.385Z,2.28
2023-05-12T13:29:52.259Z,2.25
2023-05-12T13:32:22.376Z,2.58
2023-05-12T13:34:51.735Z,2.53
2023-05-12T13:37:20.931Z,2.10
2023-05-12T13:39:49.765Z,2.03
2023-05-12T13:42:17.163Z,1.80
2023-05-12T13:44:46.129Z,2.10
2023-05-12T13:47:12.948Z,2.55
2023-05-12T13:49:39.552Z,2.28
2023-05-12T13:52:09.121Z,2.17
2023-05-12T13:54:35.755Z,2.30
2023-05-12T13:57:06.172Z,2.22
2023-05-12T13:59:32.855Z,2.33
2023-05-12T14:01:59.668Z,2.35
2023-05-12T14:04:26.664Z,2.10
2023-05-12T14:06:55.708Z,2.25
2023-05-12T14:09:22.752Z,2.25
2023-05-12T14:11:49.358Z,2.25
2023-05-12T14:14:16.021Z,2.00
2023-05-12T14:16:42.658Z,2.15
2023-05-12T14:19:12.137Z,2.00
2023-05-12T14:21:41.075Z,1.98
2023-05-12T14:24:08.849Z,2.33
2023-05-12T14:26:40.183Z,2.42
2023-05-12T14:29:08.773Z,2.05
2023-05-12T14:31:35.653Z,2.35
2023-05-12T14:34:09.239Z,2.25
2023-05-12T14:36:35.980Z,2.15
2023-05-12T14:39:02.588Z,1.83
2023-05-12T14:41:32.269Z,1.92
2023-05-12T14:43:58.906Z,1.90
2023-05-12T14:46:25.897Z,1.98
2023-05-12T14:48:52.829Z,1.90
2023-05-12T14:51:19.462Z,2.47
2023-05-12T14:53:46.271Z,2.38
2023-05-12T14:56:15.591Z,2.50
2023-05-12T14:58:42.171Z,2.80
2023-05-12T15:01:09.704Z,2.35
2023-05-12T15:03:36.426Z,2.50
2023-05-12T15:06:07.134Z,2.00
2023-05-12T15:08:36.857Z,2.90
2023-05-12T15:11:05.807Z,2.90
2023-05-12T15:13:34.764Z,2.45
2023-05-12T15:16:04.757Z,2.47
2023-05-12T15:18:31.459Z,2.55
2023-05-12T15:20:58.066Z,2.47
2023-05-12T15:23:24.676Z,2.30
2023-05-12T15:25:51.435Z,2.35
2023-05-12T15:28:18.826Z,2.40
2023-05-12T15:30:53.792Z,2.25
2023-05-12T15:33:21.217Z,2.63
2023-05-12T15:35:47.818Z,2.42
2023-05-12T15:38:14.543Z,2.40
2023-05-12T15:40:41.375Z,3.17
2023-05-12T15:43:10.437Z,2.63
2023-05-12T15:45:37.429Z,2.50
2023-05-12T15:48:09.347Z,2.50
2023-05-12T15:50:38.701Z,2.25
2023-05-12T15:53:07.761Z,3.00
2023-05-12T15:55:34.461Z,2.97
2023-05-12T15:58:01.534Z,2.92
2023-05-12T16:00:28.310Z,2.75
2023-05-12T16:02:55.128Z,2.50
2023-05-12T16:05:24.117Z,2.50
2023-05-12T16:07:55.213Z,2.55
2023-05-12T16:10:22.254Z,2.47
2023-05-12T16:12:51.341Z,2.72
2023-05-12T16:15:18.792Z,2.90
2023-05-12T16:17:45.849Z,2.63
2023-05-12T16:20:12.923Z,2.75
2023-05-12T16:22:40.569Z,3.10
2023-05-12T16:25:10.287Z,3.40
2023-05-12T16:27:37.212Z,3.55
2023-05-12T16:30:04.187Z,3.83
2023-05-12T16:32:32.133Z,3.25
2023-05-12T16:34:58.994Z,3.40
2023-05-12T16:37:26.529Z,3.55
2023-05-12T16:39:53.356Z,3.72
2023-05-12T16:42:20.906Z,3.80
2023-05-12T16:44:48.048Z,3.75
2023-05-12T16:47:14.866Z,3.65
2023-05-12T16:49:41.486Z,4.03
2023-05-12T16:52:12.331Z,4.03
2023-05-12T16:54:39.148Z,2.80
2023-05-12T16:57:06.077Z,3.70
2023-05-12T16:59:33.059Z,3.78
2023-05-12T17:02:00.258Z,3.58
2023-05-12T17:04:27.272Z,3.40
2023-05-12T17:06:53.913Z,4.00
2023-05-12T17:09:21.120Z,3.90
2023-05-12T17:11:47.819Z,3.88
2023-05-12T17:14:16.250Z,4.05
2023-05-12T17:16:49.421Z,4.10
2023-05-12T17:19:16.129Z,4.07
2023-05-12T17:21:42.878Z,3.85
2023-05-12T17:24:11.948Z,4.22
2023-05-12T17:26:38.669Z,3.83
2023-05-12T17:29:05.817Z,4.10
2023-05-12T17:31:32.457Z,3.95
2023-05-12T17:33:59.167Z,5.35
2023-05-12T17:36:26.112Z,5.03
2023-05-12T17:38:52.826Z,5.25
2023-05-12T17:41:19.442Z,4.30
2023-05-12T17:43:47.035Z,4.88
2023-05-12T17:46:17.307Z,5.20
2023-05-12T17:48:43.929Z,5.00
2023-05-12T17:51:13.661Z,6.85
2023-05-12T17:53:40.315Z,5.68
2023-05-12T17:56:07.361Z,5.50
2023-05-12T17:58:34.454Z,5.65
2023-05-12T18:01:03.583Z,5.00
2023-05-12T18:03:30.421Z,5.50
2023-05-12T18:05:57.041Z,5.00
2023-05-12T18:08:23.646Z,5.28
2023-05-12T18:10:52.936Z,5.63
2023-05-12T18:13:19.845Z,4.47
2023-05-12T18:15:48.601Z,4.22
2023-05-12T18:18:15.225Z,3.90
2023-05-12T18:20:42.374Z,4.40
2023-05-12T18:23:09.168Z,4.18
2023-05-12T18:25:36.736Z,4.43
2023-05-12T18:28:03.767Z,4.70
2023-05-12T18:30:30.750Z,5.20
2023-05-12T18:32:57.376Z,4.60
2023-05-12T18:35:27.256Z,6.03
2023-05-12T18:37:53.905Z,6.60
2023-05-12T18:40:22.511Z,7.72
2023-05-12T18:42:53.929Z,8.25
2023-05-12T18:45:21.124Z,6.72
2023-05-12T18:47:48.170Z,5.00
2023-05-12T18:50:15.020Z,4.40
2023-05-12T18:52:43.203Z,4.30
2023-05-12T18:55:11.169Z,3.88
2023-05-12T18:57:37.889Z,3.25
2023-05-12T19:00:04.971Z,4.30
2023-05-12T19:02:34.843Z,4.22
2023-05-12T19:05:04.000Z,4.40
2023-05-12T19:07:30.650Z,5.60
2023-05-12T19:09:57.214Z,6.15
2023-05-12T19:12:23.900Z,6.45
2023-05-12T19:14:50.473Z,5.47
2023-05-12T19:17:17.870Z,4.90
2023-05-12T19:19:44.617Z,5.90
2023-05-12T19:22:11.211Z,5.10
2023-05-12T19:24:38.063Z,5.82
2023-05-12T19:27:04.907Z,6.25
2023-05-12T19:29:33.736Z,6.50
2023-05-12T19:32:00.416Z,6.07
2023-05-12T19:34:29.525Z,5.88
2023-05-12T19:36:58.340Z,6.80
2023-05-12T19:39:25.005Z,7.82
2023-05-12T19:41:51.842Z,7.35
2023-05-12T19:44:18.429Z,7.60
2023-05-12T19:46:47.136Z,6.50
2023-05-12T19:49:14.767Z,7.28
2023-05-12T19:51:43.800Z,6.43
2023-05-12T19:54:10.435Z,7.03
2023-05-12T19:56:37.559Z,6.78
2023-05-12T19:59:04.216Z,7.63
2023-05-12T20:01:31.181Z,7.05
2023-05-12T20:03:57.882Z,6.35
2023-05-12T20:06:25.041Z,7.03
2023-05-12T20:08:52.482Z,7.72
2023-05-12T20:11:21.453Z,7.43
2023-05-12T20:13:48.223Z,7.40
2023-05-12T20:16:15.287Z,7.75
2023-05-12T20:18:42.108Z,7.32
2023-05-12T20:21:08.862Z,6.95
2023-05-12T20:23:35.748Z,6.97
2023-05-12T20:26:02.626Z,7.03
2023-05-12T20:28:29.807Z,8.10
2023-05-12T20:30:56.782Z,7.43
2023-05-12T20:33:24.220Z,7.38
2023-05-12T20:35:51.166Z,8.73
2023-05-12T20:38:18.381Z,8.75
2023-05-12T20:40:45.354Z,9.70
2023-05-12T20:43:14.683Z,9.60
2023-05-12T20:45:41.668Z,9.18
2023-05-12T20:48:11.662Z,8.60
2023-05-12T20:50:39.865Z,9.20
2023-05-12T20:53:07.248Z,8.35
2023-05-12T20:55:34.378Z,8.07
2023-05-12T20:58:02.012Z,8.20
2023-05-12T21:00:31.643Z,7.97
2023-05-12T21:02:59.827Z,8.77
2023-05-12T21:05:29.335Z,7.68
2023-05-12T21:07:58.603Z,8.52
2023-05-12T21:10:27.593Z,8.23
2023-05-12T21:12:56.795Z,7.72
2023-05-12T21:15:24.822Z,8.00
2023-05-12T21:17:53.515Z,8.50
2023-05-12T21:20:20.851Z,8.68
2023-05-12T21:22:48.078Z,8.25
2023-05-12T21:25:15.139Z,8.50
2023-05-12T21:27:42.080Z,8.63
2023-05-12T21:30:11.053Z,7.72
2023-05-12T21:32:39.762Z,8.43
2023-05-12T21:35:08.091Z,8.82
2023-05-12T21:37:35.264Z,8.18
2023-05-12T21:40:02.647Z,8.88
2023-05-12T21:42:29.676Z,9.43
2023-05-12T21:44:59.285Z,10.05
2023-05-12T21:47:29.106Z,10.35
2023-05-12T21:50:01.107Z,9.68
2023-05-12T21:52:30.450Z,9.90
2023-05-12T21:54:57.657Z,9.20
2023-05-12T21:57:24.787Z,9.68
2023-05-12T21:59:52.098Z,9.63
2023-05-12T22:02:19.685Z,10.45
2023-05-12T22:04:49.670Z,9.95
2023-05-12T22:07:16.759Z,10.02
2023-05-12T22:09:44.759Z,9.68
2023-05-12T22:12:21.956Z,9.38
2023-05-12T22:14:51.249Z,9.27
2023-05-12T22:17:18.432Z,9.80
2023-05-12T22:19:45.456Z,9.63
2023-05-12T22:22:12.803Z,9.18
2023-05-12T22:24:42.380Z,9.45
2023-05-12T22:27:13.419Z,9.60
2023-05-12T22:29:40.515Z,8.50
2023-05-12T22:32:12.405Z,9.38
2023-05-12T22:34:44.418Z,8.68
2023-05-12T22:37:14.341Z,9.18
2023-05-12T22:39:50.246Z,8.75
2023-05-12T22:42:20.744Z,8.50
2023-05-12T22:44:47.801Z,8.35
2023-05-12T22:47:14.899Z,8.27
2023-05-12T22:49:42.114Z,8.00
2023-05-12T22:52:13.911Z,8.80
2023-05-12T22:54:40.788Z,8.27
2023-05-12T22:57:10.825Z,7.90
2023-05-12T22:59:38.295Z,7.90
2023-05-12T23:02:08.214Z,8.32
2023-05-12T23:04:35.528Z,7.65
2023-05-12T23:07:03.151Z,7.55
2023-05-12T23:09:32.580Z,7.97
2023-05-12T23:12:01.194Z,7.95
2023-05-12T23:14:30.376Z,8.00
2023-05-12T23:17:01.626Z,7.65
2023-05-12T23:19:32.031Z,8.05
2023-05-12T23:21:59.160Z,7.45
2023-05-12T23:24:28.632Z,7.53
2023-05-12T23:26:55.819Z,7.95
2023-05-12T23:29:27.440Z,8.23
2023-05-12T23:31:57.946Z,7.80
2023-05-12T23:34:25.017Z,8.13
2023-05-12T23:36:52.341Z,8.18
2023-05-12T23:39:28.890Z,7.45
2023-05-12T23:41:59.628Z,8.27
2023-05-12T23:44:26.972Z,8.18
2023-05-12T23:46:54.579Z,7.78
2023-05-12T23:49:23.851Z,7.78
2023-05-12T23:51:53.512Z,7.80
2023-05-12T23:54:20.643Z,7.55
2023-05-12T23:56:51.024Z,7.78
2023-05-12T23:59:19.248Z,8.00
